sensor_id;sensor_type;location;lat;lon;timestamp;P1;durP1;ratioP1;P2;durP2;ratioP2
18505;SDS011;9382;53.242;10.438;2022-09-01T00:01:21;2.77;;;1.50;;
18505;SDS011;9382;53.242;10.438;2022-09-01T00:03:51;1.70;;;1.60;;
18505;SDS011;9382;53.242;10.438;2022-09-01T00:06:19;4.27;;;1.50;;
18505;SDS011;9382;53.242;10.438;2022-09-01T00:08:49;1.73;;;1.20;;
18505;SDS011;9382;53.242;10.438;2022-09-01T00:11:17;1.47;;;1.27;;
18505;SDS011;9382;53.242;10.438;2022-09-01T00:13:44;1.50;;;1.40;;
18505;SDS011;9382;53.242;10.438;2022-09-01T00:16:12;3.40;;;1.63;;
18505;SDS011;9382;53.242;10.438;2022-09-01T00:18:40;1.90;;;1.40;;
18505;SDS011;9382;53.242;10.438;2022-09-01T00:21:07;3.23;;;1.33;;
18505;SDS011;9382;53.242;10.438;2022-09-01T00:23:34;3.80;;;1.50;;
18505;SDS011;9382;53.242;10.438;2022-09-01T00:26:03;2.50;;;1.47;;
18505;SDS011;9382;53.242;10.438;2022-09-01T00:28:31;2.00;;;1.33;;
18505;SDS011;9382;53.242;10.438;2022-09-01T00:30:58;1.50;;;1.40;;
18505;SDS011;9382;53.242;10.438;2022-09-01T00:33:25;1.27;;;1.27;;
18505;SDS011;9382;53.242;10.438;2022-09-01T00:35:52;1.50;;;1.40;;
18505;SDS011;9382;53.242;10.438;2022-09-01T00:38:19;1.30;;;1.27;;
18505;SDS011;9382;53.242;10.438;2022-09-01T00:40:46;1.50;;;1.40;;
18505;SDS011;9382;53.242;10.438;2022-09-01T00:43:16;1.60;;;1.50;;
18505;SDS011;9382;53.242;10.438;2022-09-01T00:45:46;1.50;;;1.40;;
18505;SDS011;9382;53.242;10.438;2022-09-01T00:48:15;1.60;;;1.50;;
18505;SDS011;9382;53.242;10.438;2022-09-01T00:50:44;1.63;;;1.37;;
18505;SDS011;9382;53.242;10.438;2022-09-01T00:53:12;1.93;;;1.57;;
18505;SDS011;9382;53.242;10.438;2022-09-01T00:55:39;2.40;;;1.60;;
18505;SDS011;9382;53.242;10.438;2022-09-01T00:58:06;1.37;;;1.30;;
18505;SDS011;9382;53.242;10.438;2022-09-01T01:00:35;1.50;;;1.40;;
18505;SDS011;9382;53.242;10.438;2022-09-01T01:03:05;1.60;;;1.50;;
18505;SDS011;9382;53.242;10.438;2022-09-01T01:05:36;1.30;;;1.30;;
18505;SDS011;9382;53.242;10.438;2022-09-01T01:08:05;1.60;;;1.50;;
18505;SDS011;9382;53.242;10.438;2022-09-01T01:10:34;1.70;;;1.50;;
18505;SDS011;9382;53.242;10.438;2022-09-01T01:13:05;1.47;;;1.40;;
18505;SDS011;9382;53.242;10.438;2022-09-01T01:15:34;2.20;;;1.40;;
18505;SDS011;9382;53.242;10.438;2022-09-01T01:18:02;1.63;;;1.53;;
18505;SDS011;9382;53.242;10.438;2022-09-01T01:20:28;1.63;;;1.60;;
18505;SDS011;9382;53.242;10.438;2022-09-01T01:23:19;1.63;;;1.50;;
18505;SDS011;9382;53.242;10.438;2022-09-01T01:25:52;1.50;;;1.40;;
18505;SDS011;9382;53.242;10.438;2022-09-01T01:28:23;1.60;;;1.50;;
18505;SDS011;9382;53.242;10.438;2022-09-01T01:30:56;1.53;;;1.43;;
18505;SDS011;9382;53.242;10.438;2022-09-01T01:33:28;2.20;;;1.70;;
18505;SDS011;9382;53.242;10.438;2022-09-01T01:35:56;2.13;;;1.60;;
18505;SDS011;9382;53.242;10.438;2022-09-01T01:38:24;1.30;;;1.20;;
18505;SDS011;9382;53.242;10.438;2022-09-01T01:40:53;1.50;;;1.50;;
18505;SDS011;9382;53.242;10.438;2022-09-01T01:43:20;1.50;;;1.40;;
18505;SDS011;9382;53.242;10.438;2022-09-01T01:45:47;1.83;;;1.70;;
18505;SDS011;9382;53.242;10.438;2022-09-01T01:48:16;1.50;;;1.50;;
18505;SDS011;9382;53.242;10.438;2022-09-01T01:50:48;1.80;;;1.50;;
18505;SDS011;9382;53.242;10.438;2022-09-01T01:53:15;1.67;;;1.57;;
18505;SDS011;9382;53.242;10.438;2022-09-01T01:55:43;1.83;;;1.50;;
18505;SDS011;9382;53.242;10.438;2022-09-01T01:58:14;1.60;;;1.50;;
18505;SDS011;9382;53.242;10.438;2022-09-01T02:00:44;1.60;;;1.50;;
18505;SDS011;9382;53.242;10.438;2022-09-01T02:03:12;1.60;;;1.50;;
18505;SDS011;9382;53.242;10.438;2022-09-01T02:05:41;2.67;;;1.70;;
18505;SDS011;9382;53.242;10.438;2022-09-01T02:08:09;2.70;;;1.50;;
18505;SDS011;9382;53.242;10.438;2022-09-01T02:10:37;1.70;;;1.60;;
18505;SDS011;9382;53.242;10.438;2022-09-01T02:13:06;1.80;;;1.60;;
18505;SDS011;9382;53.242;10.438;2022-09-01T02:15:42;1.60;;;1.50;;
18505;SDS011;9382;53.242;10.438;2022-09-01T02:18:11;1.63;;;1.53;;
18505;SDS011;9382;53.242;10.438;2022-09-01T02:20:40;3.07;;;1.57;;
18505;SDS011;9382;53.242;10.438;2022-09-01T02:23:07;1.50;;;1.50;;
18505;SDS011;9382;53.242;10.438;2022-09-01T02:25:36;1.63;;;1.53;;
18505;SDS011;9382;53.242;10.438;2022-09-01T02:28:08;1.43;;;1.33;;
18505;SDS011;9382;53.242;10.438;2022-09-01T02:30:39;1.90;;;1.63;;
18505;SDS011;9382;53.242;10.438;2022-09-01T02:33:07;1.43;;;1.33;;
18505;SDS011;9382;53.242;10.438;2022-09-01T02:35:34;2.83;;;1.70;;
18505;SDS011;9382;53.242;10.438;2022-09-01T02:38:02;1.93;;;1.63;;
18505;SDS011;9382;53.242;10.438;2022-09-01T02:40:29;1.70;;;1.60;;
18505;SDS011;9382;53.242;10.438;2022-09-01T02:42:57;2.70;;;1.70;;
18505;SDS011;9382;53.242;10.438;2022-09-01T02:45:24;1.70;;;1.60;;
18505;SDS011;9382;53.242;10.438;2022-09-01T02:47:53;2.07;;;1.60;;
18505;SDS011;9382;53.242;10.438;2022-09-01T02:50:22;2.20;;;2.10;;
18505;SDS011;9382;53.242;10.438;2022-09-01T02:52:50;2.43;;;1.80;;
18505;SDS011;9382;53.242;10.438;2022-09-01T02:55:19;3.67;;;1.83;;
18505;SDS011;9382;53.242;10.438;2022-09-01T02:57:48;2.80;;;2.10;;
18505;SDS011;9382;53.242;10.438;2022-09-01T03:00:21;2.13;;;1.80;;
18505;SDS011;9382;53.242;10.438;2022-09-01T03:02:53;2.37;;;1.83;;
18505;SDS011;9382;53.242;10.438;2022-09-01T03:05:23;2.13;;;2.03;;
18505;SDS011;9382;53.242;10.438;2022-09-01T03:07:52;2.13;;;1.90;;
18505;SDS011;9382;53.242;10.438;2022-09-01T03:10:22;2.00;;;1.90;;
18505;SDS011;9382;53.242;10.438;2022-09-01T03:12:56;2.10;;;2.00;;
18505;SDS011;9382;53.242;10.438;2022-09-01T03:15:24;2.10;;;2.00;;
18505;SDS011;9382;53.242;10.438;2022-09-01T03:17:51;2.10;;;2.00;;
18505;SDS011;9382;53.242;10.438;2022-09-01T03:20:18;2.00;;;1.80;;
18505;SDS011;9382;53.242;10.438;2022-09-01T03:22:47;1.87;;;1.77;;
18505;SDS011;9382;53.242;10.438;2022-09-01T03:25:15;2.07;;;1.87;;
18505;SDS011;9382;53.242;10.438;2022-09-01T03:27:42;2.33;;;2.13;;
18505;SDS011;9382;53.242;10.438;2022-09-01T03:30:10;2.07;;;1.90;;
18505;SDS011;9382;53.242;10.438;2022-09-01T03:32:37;2.03;;;1.87;;
18505;SDS011;9382;53.242;10.438;2022-09-01T03:35:05;2.83;;;2.50;;
18505;SDS011;9382;53.242;10.438;2022-09-01T03:37:32;2.20;;;2.10;;
18505;SDS011;9382;53.242;10.438;2022-09-01T03:40:02;1.93;;;1.80;;
18505;SDS011;9382;53.242;10.438;2022-09-01T03:42:29;2.17;;;2.07;;
18505;SDS011;9382;53.242;10.438;2022-09-01T03:44:56;3.10;;;2.20;;
18505;SDS011;9382;53.242;10.438;2022-09-01T03:47:23;2.37;;;2.17;;
18505;SDS011;9382;53.242;10.438;2022-09-01T03:49:51;2.30;;;2.10;;
18505;SDS011;9382;53.242;10.438;2022-09-01T03:52:19;2.27;;;2.17;;
18505;SDS011;9382;53.242;10.438;2022-09-01T03:54:47;2.33;;;2.13;;
18505;SDS011;9382;53.242;10.438;2022-09-01T03:57:19;2.17;;;2.07;;
18505;SDS011;9382;53.242;10.438;2022-09-01T03:59:47;2.77;;;2.10;;
18505;SDS011;9382;53.242;10.438;2022-09-01T04:02:14;3.07;;;2.10;;
18505;SDS011;9382;53.242;10.438;2022-09-01T04:04:41;2.20;;;2.10;;
18505;SDS011;9382;53.242;10.438;2022-09-01T04:07:07;2.40;;;2.20;;
18505;SDS011;9382;53.242;10.438;2022-09-01T04:09:34;2.10;;;2.00;;
18505;SDS011;9382;53.242;10.438;2022-09-01T04:12:02;2.17;;;2.07;;
18505;SDS011;9382;53.242;10.438;2022-09-01T04:14:34;2.50;;;2.30;;
18505;SDS011;9382;53.242;10.438;2022-09-01T04:17:01;2.13;;;1.90;;
18505;SDS011;9382;53.242;10.438;2022-09-01T04:19:45;2.60;;;2.40;;
18505;SDS011;9382;53.242;10.438;2022-09-01T04:22:12;2.77;;;2.53;;
18505;SDS011;9382;53.242;10.438;2022-09-01T04:24:41;2.77;;;2.40;;
18505;SDS011;9382;53.242;10.438;2022-09-01T04:27:09;3.57;;;2.37;;
18505;SDS011;9382;53.242;10.438;2022-09-01T04:29:39;2.27;;;2.10;;
18505;SDS011;9382;53.242;10.438;2022-09-01T04:32:06;2.13;;;2.03;;
18505;SDS011;9382;53.242;10.438;2022-09-01T04:34:35;2.63;;;2.30;;
18505;SDS011;9382;53.242;10.438;2022-09-01T04:37:06;3.07;;;2.30;;
18505;SDS011;9382;53.242;10.438;2022-09-01T04:39:33;2.33;;;2.10;;
18505;SDS011;9382;53.242;10.438;2022-09-01T04:42:00;2.20;;;2.00;;
18505;SDS011;9382;53.242;10.438;2022-09-01T04:44:30;2.83;;;2.50;;
18505;SDS011;9382;53.242;10.438;2022-09-01T04:46:58;3.37;;;2.53;;
18505;SDS011;9382;53.242;10.438;2022-09-01T04:49:25;2.83;;;2.30;;
18505;SDS011;9382;53.242;10.438;2022-09-01T04:51:53;4.07;;;2.27;;
18505;SDS011;9382;53.242;10.438;2022-09-01T04:54:21;3.63;;;2.20;;
18505;SDS011;9382;53.242;10.438;2022-09-01T04:56:48;2.80;;;2.60;;
18505;SDS011;9382;53.242;10.438;2022-09-01T04:59:17;3.17;;;2.50;;
18505;SDS011;9382;53.242;10.438;2022-09-01T05:01:46;2.57;;;2.30;;
18505;SDS011;9382;53.242;10.438;2022-09-01T05:04:16;4.43;;;2.40;;
18505;SDS011;9382;53.242;10.438;2022-09-01T05:06:46;2.80;;;2.60;;
18505;SDS011;9382;53.242;10.438;2022-09-01T05:09:16;3.77;;;2.80;;
18505;SDS011;9382;53.242;10.438;2022-09-01T05:11:44;3.20;;;2.90;;
18505;SDS011;9382;53.242;10.438;2022-09-01T05:14:12;2.70;;;2.50;;
18505;SDS011;9382;53.242;10.438;2022-09-01T05:16:42;2.97;;;2.60;;
18505;SDS011;9382;53.242;10.438;2022-09-01T05:19:09;3.00;;;2.70;;
18505;SDS011;9382;53.242;10.438;2022-09-01T05:21:40;2.73;;;2.53;;
18505;SDS011;9382;53.242;10.438;2022-09-01T05:24:09;5.23;;;2.63;;
18505;SDS011;9382;53.242;10.438;2022-09-01T05:26:39;4.23;;;2.80;;
18505;SDS011;9382;53.242;10.438;2022-09-01T05:29:07;4.67;;;2.83;;
18505;SDS011;9382;53.242;10.438;2022-09-01T05:31:37;3.80;;;2.70;;
18505;SDS011;9382;53.242;10.438;2022-09-01T05:34:06;4.50;;;2.87;;
18505;SDS011;9382;53.242;10.438;2022-09-01T05:36:34;5.33;;;3.20;;
18505;SDS011;9382;53.242;10.438;2022-09-01T05:39:05;3.00;;;2.80;;
18505;SDS011;9382;53.242;10.438;2022-09-01T05:41:35;4.03;;;3.20;;
18505;SDS011;9382;53.242;10.438;2022-09-01T05:44:04;4.60;;;3.33;;
18505;SDS011;9382;53.242;10.438;2022-09-01T05:46:32;4.33;;;3.03;;
18505;SDS011;9382;53.242;10.438;2022-09-01T05:49:01;5.50;;;3.13;;
18505;SDS011;9382;53.242;10.438;2022-09-01T05:51:31;4.10;;;2.80;;
18505;SDS011;9382;53.242;10.438;2022-09-01T05:53:59;5.37;;;3.30;;
18505;SDS011;9382;53.242;10.438;2022-09-01T05:56:29;4.83;;;3.07;;
18505;SDS011;9382;53.242;10.438;2022-09-01T05:58:58;6.27;;;3.30;;
18505;SDS011;9382;53.242;10.438;2022-09-01T06:01:26;5.10;;;3.57;;
18505;SDS011;9382;53.242;10.438;2022-09-01T06:03:58;8.20;;;3.20;;
18505;SDS011;9382;53.242;10.438;2022-09-01T06:06:33;4.03;;;3.00;;
18505;SDS011;9382;53.242;10.438;2022-09-01T06:09:03;9.40;;;3.40;;
18505;SDS011;9382;53.242;10.438;2022-09-01T06:11:32;3.77;;;3.30;;
18505;SDS011;9382;53.242;10.438;2022-09-01T06:13:59;4.17;;;3.40;;
18505;SDS011;9382;53.242;10.438;2022-09-01T06:16:26;7.07;;;3.60;;
18505;SDS011;9382;53.242;10.438;2022-09-01T06:18:55;4.47;;;3.23;;
18505;SDS011;9382;53.242;10.438;2022-09-01T06:21:24;6.07;;;3.43;;
18505;SDS011;9382;53.242;10.438;2022-09-01T06:23:53;3.67;;;3.30;;
18505;SDS011;9382;53.242;10.438;2022-09-01T06:26:21;3.37;;;2.77;;
18505;SDS011;9382;53.242;10.438;2022-09-01T06:28:53;3.10;;;2.80;;
18505;SDS011;9382;53.242;10.438;2022-09-01T06:31:21;6.07;;;2.77;;
18505;SDS011;9382;53.242;10.438;2022-09-01T06:33:48;5.37;;;2.60;;
18505;SDS011;9382;53.242;10.438;2022-09-01T06:36:17;6.00;;;2.67;;
18505;SDS011;9382;53.242;10.438;2022-09-01T06:38:46;4.77;;;2.60;;
18505;SDS011;9382;53.242;10.438;2022-09-01T06:41:13;3.13;;;2.40;;
18505;SDS011;9382;53.242;10.438;2022-09-01T06:43:43;4.43;;;2.50;;
18505;SDS011;9382;53.242;10.438;2022-09-01T06:46:12;6.63;;;2.60;;
18505;SDS011;9382;53.242;10.438;2022-09-01T06:48:39;6.23;;;2.17;;
18505;SDS011;9382;53.242;10.438;2022-09-01T06:51:10;7.80;;;2.10;;
18505;SDS011;9382;53.242;10.438;2022-09-01T06:53:38;3.90;;;2.43;;
18505;SDS011;9382;53.242;10.438;2022-09-01T06:56:05;5.03;;;2.00;;
18505;SDS011;9382;53.242;10.438;2022-09-01T06:58:37;5.47;;;1.90;;
18505;SDS011;9382;53.242;10.438;2022-09-01T07:01:06;2.40;;;1.67;;
18505;SDS011;9382;53.242;10.438;2022-09-01T07:03:39;2.83;;;1.67;;
18505;SDS011;9382;53.242;10.438;2022-09-01T07:06:07;2.37;;;1.70;;
18505;SDS011;9382;53.242;10.438;2022-09-01T07:08:34;3.73;;;1.70;;
18505;SDS011;9382;53.242;10.438;2022-09-01T07:11:03;1.50;;;1.40;;
18505;SDS011;9382;53.242;10.438;2022-09-01T07:13:32;3.40;;;1.87;;
18505;SDS011;9382;53.242;10.438;2022-09-01T07:16:00;2.87;;;1.50;;
18505;SDS011;9382;53.242;10.438;2022-09-01T07:18:29;3.00;;;1.60;;
18505;SDS011;9382;53.242;10.438;2022-09-01T07:20:57;1.97;;;1.40;;
18505;SDS011;9382;53.242;10.438;2022-09-01T07:23:24;2.30;;;1.20;;
18505;SDS011;9382;53.242;10.438;2022-09-01T07:25:51;1.77;;;1.10;;
18505;SDS011;9382;53.242;10.438;2022-09-01T07:28:19;3.40;;;1.10;;
18505;SDS011;9382;53.242;10.438;2022-09-01T07:30:49;1.90;;;1.10;;
18505;SDS011;9382;53.242;10.438;2022-09-01T07:33:18;4.23;;;1.27;;
18505;SDS011;9382;53.242;10.438;2022-09-01T07:35:49;1.30;;;1.20;;
18505;SDS011;9382;53.242;10.438;2022-09-01T07:38:18;1.30;;;1.17;;
18505;SDS011;9382;53.242;10.438;2022-09-01T07:40:46;1.50;;;1.00;;
18505;SDS011;9382;53.242;10.438;2022-09-01T07:43:15;1.20;;;1.10;;
18505;SDS011;9382;53.242;10.438;2022-09-01T07:45:46;0.93;;;0.93;;
18505;SDS011;9382;53.242;10.438;2022-09-01T07:48:13;1.20;;;1.10;;
18505;SDS011;9382;53.242;10.438;2022-09-01T07:50:42;2.47;;;1.00;;
18505;SDS011;9382;53.242;10.438;2022-09-01T07:53:11;1.37;;;1.20;;
18505;SDS011;9382;53.242;10.438;2022-09-01T07:55:43;1.60;;;1.50;;
18505;SDS011;9382;53.242;10.438;2022-09-01T07:58:14;2.07;;;1.00;;
18505;SDS011;9382;53.242;10.438;2022-09-01T08:00:41;0.87;;;0.87;;
18505;SDS011;9382;53.242;10.438;2022-09-01T08:03:09;3.37;;;0.90;;
18505;SDS011;9382;53.242;10.438;2022-09-01T08:05:35;0.83;;;0.83;;
18505;SDS011;9382;53.242;10.438;2022-09-01T08:08:03;1.00;;;0.90;;
18505;SDS011;9382;53.242;10.438;2022-09-01T08:10:30;1.03;;;0.80;;
18505;SDS011;9382;53.242;10.438;2022-09-01T08:12:58;1.30;;;0.60;;
18505;SDS011;9382;53.242;10.438;2022-09-01T08:15:24;1.13;;;0.77;;
18505;SDS011;9382;53.242;10.438;2022-09-01T08:17:51;0.70;;;0.70;;
18505;SDS011;9382;53.242;10.438;2022-09-01T08:20:18;3.20;;;0.83;;
18505;SDS011;9382;53.242;10.438;2022-09-01T08:22:45;1.30;;;0.70;;
18505;SDS011;9382;53.242;10.438;2022-09-01T08:25:12;0.80;;;0.80;;
18505;SDS011;9382;53.242;10.438;2022-09-01T08:27:39;0.70;;;0.70;;
18505;SDS011;9382;53.242;10.438;2022-09-01T08:30:09;0.70;;;0.70;;
18505;SDS011;9382;53.242;10.438;2022-09-01T08:32:38;0.60;;;0.60;;
18505;SDS011;9382;53.242;10.438;2022-09-01T08:35:06;1.43;;;0.70;;
18505;SDS011;9382;53.242;10.438;2022-09-01T08:37:34;0.80;;;0.80;;
18505;SDS011;9382;53.242;10.438;2022-09-01T08:40:01;2.30;;;0.70;;
18505;SDS011;9382;53.242;10.438;2022-09-01T08:42:33;0.80;;;0.80;;
18505;SDS011;9382;53.242;10.438;2022-09-01T08:45:12;1.33;;;0.57;;
18505;SDS011;9382;53.242;10.438;2022-09-01T08:47:45;0.93;;;0.70;;
18505;SDS011;9382;53.242;10.438;2022-09-01T08:50:12;0.60;;;0.60;;
18505;SDS011;9382;53.242;10.438;2022-09-01T08:52:40;0.50;;;0.50;;
18505;SDS011;9382;53.242;10.438;2022-09-01T08:55:13;0.70;;;0.70;;
18505;SDS011;9382;53.242;10.438;2022-09-01T08:57:44;0.70;;;0.70;;
18505;SDS011;9382;53.242;10.438;2022-09-01T09:00:17;0.70;;;0.70;;
18505;SDS011;9382;53.242;10.438;2022-09-01T09:02:50;0.63;;;0.63;;
18505;SDS011;9382;53.242;10.438;2022-09-01T09:05:29;0.60;;;0.60;;
18505;SDS011;9382;53.242;10.438;2022-09-01T09:08:07;0.70;;;0.70;;
18505;SDS011;9382;53.242;10.438;2022-09-01T09:10:54;0.97;;;0.53;;
18505;SDS011;9382;53.242;10.438;2022-09-01T09:13:28;0.70;;;0.70;;
18505;SDS011;9382;53.242;10.438;2022-09-01T09:16:07;0.70;;;0.70;;
18505;SDS011;9382;53.242;10.438;2022-09-01T09:18:39;0.70;;;0.70;;
18505;SDS011;9382;53.242;10.438;2022-09-01T09:21:11;2.93;;;0.60;;
18505;SDS011;9382;53.242;10.438;2022-09-01T09:23:44;0.97;;;0.70;;
18505;SDS011;9382;53.242;10.438;2022-09-01T09:26:13;1.10;;;0.80;;
18505;SDS011;9382;53.242;10.438;2022-09-01T09:28:44;0.80;;;0.70;;
18505;SDS011;9382;53.242;10.438;2022-09-01T09:31:29;0.60;;;0.60;;
18505;SDS011;9382;53.242;10.438;2022-09-01T09:33:58;0.70;;;0.70;;
18505;SDS011;9382;53.242;10.438;2022-09-01T09:36:30;0.70;;;0.70;;
18505;SDS011;9382;53.242;10.438;2022-09-01T09:39:04;1.00;;;0.90;;
18505;SDS011;9382;53.242;10.438;2022-09-01T09:41:33;1.17;;;0.90;;
18505;SDS011;9382;53.242;10.438;2022-09-01T09:44:03;2.33;;;0.90;;
18505;SDS011;9382;53.242;10.438;2022-09-01T09:46:38;0.80;;;0.80;;
18505;SDS011;9382;53.242;10.438;2022-09-01T09:49:11;0.60;;;0.60;;
18505;SDS011;9382;53.242;10.438;2022-09-01T09:51:43;0.80;;;0.80;;
18505;SDS011;9382;53.242;10.438;2022-09-01T09:54:14;0.87;;;0.70;;
18505;SDS011;9382;53.242;10.438;2022-09-01T09:56:44;0.73;;;0.73;;
18505;SDS011;9382;53.242;10.438;2022-09-01T09:59:21;1.23;;;0.73;;
18505;SDS011;9382;53.242;10.438;2022-09-01T10:01:55;2.10;;;0.77;;
18505;SDS011;9382;53.242;10.438;2022-09-01T10:07:25;1.27;;;1.03;;
18505;SDS011;9382;53.242;10.438;2022-09-01T10:09:56;0.80;;;0.80;;
18505;SDS011;9382;53.242;10.438;2022-09-01T10:12:25;1.63;;;0.80;;
18505;SDS011;9382;53.242;10.438;2022-09-01T10:14:53;0.67;;;0.67;;
18505;SDS011;9382;53.242;10.438;2022-09-01T10:17:27;0.90;;;0.73;;
18505;SDS011;9382;53.242;10.438;2022-09-01T10:19:57;0.83;;;0.80;;
18505;SDS011;9382;53.242;10.438;2022-09-01T10:22:29;1.00;;;0.90;;
18505;SDS011;9382;53.242;10.438;2022-09-01T10:24:56;0.70;;;0.70;;
18505;SDS011;9382;53.242;10.438;2022-09-01T10:27:24;0.73;;;0.73;;
18505;SDS011;9382;53.242;10.438;2022-09-01T10:29:55;0.67;;;0.67;;
18505;SDS011;9382;53.242;10.438;2022-09-01T10:32:31;1.60;;;1.50;;
18505;SDS011;9382;53.242;10.438;2022-09-01T10:35:00;1.10;;;1.00;;
18505;SDS011;9382;53.242;10.438;2022-09-01T10:37:28;1.53;;;1.20;;
18505;SDS011;9382;53.242;10.438;2022-09-01T10:40:10;0.80;;;0.80;;
18505;SDS011;9382;53.242;10.438;2022-09-01T10:42:39;1.03;;;0.80;;
18505;SDS011;9382;53.242;10.438;2022-09-01T10:45:15;1.27;;;1.00;;
18505;SDS011;9382;53.242;10.438;2022-09-01T10:47:46;1.10;;;1.10;;
18505;SDS011;9382;53.242;10.438;2022-09-01T10:50:25;0.90;;;0.80;;
18505;SDS011;9382;53.242;10.438;2022-09-01T10:53:00;1.33;;;0.90;;
18505;SDS011;9382;53.242;10.438;2022-09-01T10:55:34;0.80;;;0.80;;
18505;SDS011;9382;53.242;10.438;2022-09-01T10:58:19;0.90;;;0.90;;
18505;SDS011;9382;53.242;10.438;2022-09-01T11:00:58;0.80;;;0.80;;
18505;SDS011;9382;53.242;10.438;2022-09-01T11:03:33;1.20;;;1.17;;
18505;SDS011;9382;53.242;10.438;2022-09-01T11:09:26;0.70;;;0.70;;
18505;SDS011;9382;53.242;10.438;2022-09-01T11:12:01;0.80;;;0.70;;
18505;SDS011;9382;53.242;10.438;2022-09-01T11:14:47;3.50;;;1.08;;
18505;SDS011;9382;53.242;10.438;2022-09-01T11:17:16;0.70;;;0.60;;
18505;SDS011;9382;53.242;10.438;2022-09-01T11:19:47;0.80;;;0.80;;
18505;SDS011;9382;53.242;10.438;2022-09-01T11:22:27;1.07;;;0.93;;
18505;SDS011;9382;53.242;10.438;2022-09-01T11:25:15;0.93;;;0.70;;
18505;SDS011;9382;53.242;10.438;2022-09-01T11:28:02;0.77;;;0.77;;
18505;SDS011;9382;53.242;10.438;2022-09-01T11:30:32;1.13;;;0.73;;
18505;SDS011;9382;53.242;10.438;2022-09-01T11:33:25;0.87;;;0.70;;
18505;SDS011;9382;53.242;10.438;2022-09-01T11:36:25;0.90;;;0.90;;
18505;SDS011;9382;53.242;10.438;2022-09-01T11:38:57;1.03;;;0.50;;
18505;SDS011;9382;53.242;10.438;2022-09-01T11:41:30;2.17;;;0.67;;
18505;SDS011;9382;53.242;10.438;2022-09-01T11:44:01;1.13;;;0.53;;
18505;SDS011;9382;53.242;10.438;2022-09-01T11:46:35;2.17;;;0.80;;
18505;SDS011;9382;53.242;10.438;2022-09-01T11:49:08;0.80;;;0.80;;
18505;SDS011;9382;53.242;10.438;2022-09-01T11:51:53;0.60;;;0.60;;
18505;SDS011;9382;53.242;10.438;2022-09-01T11:54:21;1.10;;;0.80;;
18505;SDS011;9382;53.242;10.438;2022-09-01T11:56:49;1.53;;;0.80;;
18505;SDS011;9382;53.242;10.438;2022-09-01T11:59:28;1.90;;;1.80;;
18505;SDS011;9382;53.242;10.438;2022-09-01T12:01:57;1.00;;;1.00;;
18505;SDS011;9382;53.242;10.438;2022-09-01T12:04:24;2.00;;;0.90;;
18505;SDS011;9382;53.242;10.438;2022-09-01T12:06:57;4.77;;;0.90;;
18505;SDS011;9382;53.242;10.438;2022-09-01T12:09:30;2.23;;;0.80;;
18505;SDS011;9382;53.242;10.438;2022-09-01T12:11:58;1.33;;;0.70;;
18505;SDS011;9382;53.242;10.438;2022-09-01T12:14:25;0.70;;;0.70;;
18505;SDS011;9382;53.242;10.438;2022-09-01T12:16:56;1.60;;;0.90;;
18505;SDS011;9382;53.242;10.438;2022-09-01T12:19:25;3.03;;;1.83;;
18505;SDS011;9382;53.242;10.438;2022-09-01T12:21:57;0.93;;;0.93;;
18505;SDS011;9382;53.242;10.438;2022-09-01T12:24:26;2.40;;;0.80;;
18505;SDS011;9382;53.242;10.438;2022-09-01T12:26:55;2.72;;;0.50;;
18505;SDS011;9382;53.242;10.438;2022-09-01T12:29:23;2.45;;;0.77;;
18505;SDS011;9382;53.242;10.438;2022-09-01T12:31:50;2.92;;;0.75;;
18505;SDS011;9382;53.242;10.438;2022-09-01T12:34:23;1.50;;;0.80;;
18505;SDS011;9382;53.242;10.438;2022-09-01T12:37:04;0.70;;;0.70;;
18505;SDS011;9382;53.242;10.438;2022-09-01T12:39:33;1.00;;;0.90;;
18505;SDS011;9382;53.242;10.438;2022-09-01T12:42:04;0.88;;;0.88;;
18505;SDS011;9382;53.242;10.438;2022-09-01T12:44:43;1.52;;;0.93;;
18505;SDS011;9382;53.242;10.438;2022-09-01T12:47:12;0.77;;;0.77;;
18505;SDS011;9382;53.242;10.438;2022-09-01T12:50:00;0.80;;;0.80;;
18505;SDS011;9382;53.242;10.438;2022-09-01T12:52:29;2.80;;;0.82;;
18505;SDS011;9382;53.242;10.438;2022-09-01T12:55:07;1.58;;;0.70;;
18505;SDS011;9382;53.242;10.438;2022-09-01T12:57:40;0.82;;;0.80;;
18505;SDS011;9382;53.242;10.438;2022-09-01T13:00:16;1.20;;;1.20;;
18505;SDS011;9382;53.242;10.438;2022-09-01T13:02:45;1.42;;;0.73;;
18505;SDS011;9382;53.242;10.438;2022-09-01T13:05:17;0.68;;;0.68;;
18505;SDS011;9382;53.242;10.438;2022-09-01T13:07:51;0.88;;;0.88;;
18505;SDS011;9382;53.242;10.438;2022-09-01T13:10:18;1.00;;;0.90;;
18505;SDS011;9382;53.242;10.438;2022-09-01T13:12:45;1.70;;;0.70;;
18505;SDS011;9382;53.242;10.438;2022-09-01T13:15:13;0.75;;;0.70;;
18505;SDS011;9382;53.242;10.438;2022-09-01T13:17:39;1.13;;;0.80;;
18505;SDS011;9382;53.242;10.438;2022-09-01T13:20:07;1.13;;;0.73;;
18505;SDS011;9382;53.242;10.438;2022-09-01T13:22:36;0.73;;;0.73;;
18505;SDS011;9382;53.242;10.438;2022-09-01T13:25:06;0.82;;;0.70;;
18505;SDS011;9382;53.242;10.438;2022-09-01T13:27:34;0.93;;;0.80;;
18505;SDS011;9382;53.242;10.438;2022-09-01T13:30:01;2.67;;;0.97;;
18505;SDS011;9382;53.242;10.438;2022-09-01T13:32:29;0.70;;;0.70;;
18505;SDS011;9382;53.242;10.438;2022-09-01T13:34:56;0.80;;;0.80;;
18505;SDS011;9382;53.242;10.438;2022-09-01T13:37:22;0.80;;;0.80;;
18505;SDS011;9382;53.242;10.438;2022-09-01T13:39:49;3.07;;;1.00;;
18505;SDS011;9382;53.242;10.438;2022-09-01T13:42:17;0.93;;;0.93;;
18505;SDS011;9382;53.242;10.438;2022-09-01T13:44:44;0.73;;;0.73;;
18505;SDS011;9382;53.242;10.438;2022-09-01T13:47:11;1.23;;;0.93;;
18505;SDS011;9382;53.242;10.438;2022-09-01T13:49:38;0.70;;;0.70;;
18505;SDS011;9382;53.242;10.438;2022-09-01T13:52:05;1.33;;;0.70;;
18505;SDS011;9382;53.242;10.438;2022-09-01T13:54:31;0.80;;;0.80;;
18505;SDS011;9382;53.242;10.438;2022-09-01T13:56:58;0.87;;;0.83;;
18505;SDS011;9382;53.242;10.438;2022-09-01T13:59:26;1.70;;;0.90;;
18505;SDS011;9382;53.242;10.438;2022-09-01T14:01:54;4.27;;;1.00;;
18505;SDS011;9382;53.242;10.438;2022-09-01T14:04:21;1.57;;;0.83;;
18505;SDS011;9382;53.242;10.438;2022-09-01T14:06:47;1.40;;;0.77;;
18505;SDS011;9382;53.242;10.438;2022-09-01T14:09:14;0.70;;;0.70;;
18505;SDS011;9382;53.242;10.438;2022-09-01T14:11:41;2.33;;;0.90;;
18505;SDS011;9382;53.242;10.438;2022-09-01T14:14:08;1.10;;;1.00;;
18505;SDS011;9382;53.242;10.438;2022-09-01T14:16:36;0.70;;;0.70;;
18505;SDS011;9382;53.242;10.438;2022-09-01T14:19:03;2.20;;;0.90;;
18505;SDS011;9382;53.242;10.438;2022-09-01T14:21:30;0.97;;;0.93;;
18505;SDS011;9382;53.242;10.438;2022-09-01T14:23:57;0.93;;;0.90;;
18505;SDS011;9382;53.242;10.438;2022-09-01T14:26:24;1.85;;;0.88;;
18505;SDS011;9382;53.242;10.438;2022-09-01T14:28:51;0.95;;;0.95;;
18505;SDS011;9382;53.242;10.438;2022-09-01T14:31:19;1.67;;;1.00;;
18505;SDS011;9382;53.242;10.438;2022-09-01T14:33:47;0.70;;;0.70;;
18505;SDS011;9382;53.242;10.438;2022-09-01T14:36:18;1.83;;;0.90;;
18505;SDS011;9382;53.242;10.438;2022-09-01T14:38:46;1.50;;;1.00;;
18505;SDS011;9382;53.242;10.438;2022-09-01T14:41:14;0.80;;;0.80;;
18505;SDS011;9382;53.242;10.438;2022-09-01T14:43:45;1.90;;;0.80;;
18505;SDS011;9382;53.242;10.438;2022-09-01T14:46:13;1.13;;;0.90;;
18505;SDS011;9382;53.242;10.438;2022-09-01T14:48:41;2.47;;;0.90;;
18505;SDS011;9382;53.242;10.438;2022-09-01T14:51:16;0.85;;;0.70;;
18505;SDS011;9382;53.242;10.438;2022-09-01T14:53:46;1.63;;;0.80;;
18505;SDS011;9382;53.242;10.438;2022-09-01T14:56:13;1.02;;;0.93;;
18505;SDS011;9382;53.242;10.438;2022-09-01T14:58:42;1.25;;;0.98;;
18505;SDS011;9382;53.242;10.438;2022-09-01T15:01:11;2.45;;;0.95;;
18505;SDS011;9382;53.242;10.438;2022-09-01T15:03:38;1.02;;;1.00;;
18505;SDS011;9382;53.242;10.438;2022-09-01T15:06:06;1.70;;;0.82;;
18505;SDS011;9382;53.242;10.438;2022-09-01T15:08:34;0.80;;;0.80;;
18505;SDS011;9382;53.242;10.438;2022-09-01T15:11:00;0.80;;;0.80;;